createdAt,value
2018-09-14T00:00:35.921Z,3.33
2018-09-14T00:03:12.228Z,3.60
2018-09-14T00:05:47.116Z,3.40
2018-09-14T00:08:21.932Z,3.90
2018-09-14T00:10:56.376Z,4.80
2018-09-14T00:13:31.013Z,5.13
2018-09-14T00:16:06.187Z,5.83
2018-09-14T00:18:40.954Z,4.67
2018-09-14T00:21:15.668Z,5.93
2018-09-14T00:23:50.061Z,4.53
2018-09-14T00:26:24.397Z,5.03
2018-09-14T00:28:59.447Z,6.43
2018-09-14T00:31:33.799Z,7.57
2018-09-14T00:34:08.193Z,14.97
2018-09-14T00:36:42.928Z,14.03
2018-09-14T00:39:17.708Z,14.20
2018-09-14T00:41:52.537Z,13.80
2018-09-14T00:44:27.105Z,15.23
2018-09-14T00:47:01.868Z,15.17
2018-09-14T00:49:36.140Z,17.57
2018-09-14T00:52:10.600Z,15.30
2018-09-14T00:54:45.682Z,18.27
2018-09-14T00:57:20.266Z,15.77
2018-09-14T00:59:54.616Z,21.13
2018-09-14T01:02:51.199Z,19.00
2018-09-14T01:05:26.388Z,18.83
2018-09-14T01:08:01.047Z,22.40
2018-09-14T01:10:35.636Z,23.10
2018-09-14T01:13:10.138Z,22.87
2018-09-14T01:15:44.952Z,25.43
2018-09-14T01:18:20.129Z,24.33
2018-09-14T01:20:55.252Z,23.83
2018-09-14T01:23:29.728Z,26.27
2018-09-14T01:26:04.445Z,25.37
2018-09-14T01:28:38.772Z,25.67
2018-09-14T01:31:13.231Z,26.27
2018-09-14T01:33:47.844Z,26.87
2018-09-14T01:36:22.212Z,25.63
2018-09-14T01:38:56.524Z,27.60
2018-09-14T01:41:30.995Z,26.37
2018-09-14T01:44:05.630Z,26.17
2018-09-14T01:46:40.759Z,25.33
2018-09-14T01:49:15.265Z,23.10
2018-09-14T01:51:49.867Z,26.10
2018-09-14T01:54:25.193Z,23.40
2018-09-14T01:56:59.620Z,25.00
2018-09-14T01:59:34.323Z,25.80
2018-09-14T02:02:09.036Z,23.50
2018-09-14T02:04:43.522Z,24.20
2018-09-14T02:07:17.859Z,23.80
2018-09-14T02:09:52.372Z,22.50
2018-09-14T02:12:26.966Z,26.30
2018-09-14T02:15:01.468Z,26.23
2018-09-14T02:17:35.828Z,22.90
2018-09-14T02:20:10.297Z,20.27
2018-09-14T02:22:45.025Z,19.27
2018-09-14T02:25:20.015Z,19.90
2018-09-14T02:27:54.459Z,19.27
2018-09-14T02:30:28.989Z,23.93
2018-09-14T02:33:03.878Z,20.43
2018-09-14T02:35:38.352Z,21.80
2018-09-14T02:38:12.737Z,19.97
2018-09-14T02:40:47.201Z,20.53
2018-09-14T02:43:21.697Z,21.40
2018-09-14T02:45:56.213Z,19.73
2018-09-14T02:48:30.637Z,19.80
2018-09-14T02:51:05.556Z,16.87
2018-09-14T02:53:40.141Z,17.60
2018-09-14T02:56:14.888Z,17.17
2018-09-14T02:58:49.658Z,16.23
2018-09-14T03:01:24.137Z,16.60
2018-09-14T03:03:58.788Z,15.30
2018-09-14T03:06:33.261Z,15.17
2018-09-14T03:09:08.385Z,16.27
2018-09-14T03:11:43.116Z,15.73
2018-09-14T03:14:17.833Z,17.00
2018-09-14T03:16:52.348Z,16.63
2018-09-14T03:19:26.973Z,20.40
2018-09-14T03:22:01.461Z,15.27
2018-09-14T03:24:35.927Z,15.47
2018-09-14T03:27:10.456Z,14.27
2018-09-14T03:29:44.956Z,14.73
2018-09-14T03:32:19.338Z,14.33
2018-09-14T03:34:54.071Z,14.83
2018-09-14T03:37:28.524Z,13.70
2018-09-14T03:40:23.597Z,14.53
2018-09-14T03:42:58.218Z,14.17
2018-09-14T03:45:32.703Z,13.73
2018-09-14T03:48:07.776Z,14.63
2018-09-14T03:50:42.301Z,14.47
2018-09-14T03:53:16.769Z,13.03
2018-09-14T03:55:51.385Z,9.93
2018-09-14T03:58:26.040Z,9.07
2018-09-14T04:01:00.596Z,8.90
2018-09-14T04:03:34.909Z,9.07
2018-09-14T04:06:09.188Z,10.63
2018-09-14T04:08:43.624Z,9.50
2018-09-14T04:11:17.935Z,10.00
2018-09-14T04:13:52.254Z,9.83
2018-09-14T04:16:26.548Z,9.30
2018-09-14T04:19:03.577Z,8.90
2018-09-14T04:21:38.388Z,10.23
2018-09-14T04:24:12.894Z,10.17
2018-09-14T04:26:47.153Z,10.03
2018-09-14T04:29:21.523Z,10.27
2018-09-14T04:31:56.051Z,9.93
2018-09-14T04:34:30.561Z,9.87
2018-09-14T04:37:05.203Z,10.17
2018-09-14T04:39:39.935Z,10.33
2018-09-14T04:42:14.711Z,11.30
2018-09-14T04:44:49.132Z,10.80
2018-09-14T04:47:23.515Z,11.23
2018-09-14T04:49:58.099Z,11.10
2018-09-14T04:52:33.100Z,12.50
2018-09-14T04:55:07.794Z,11.30
2018-09-14T04:57:42.432Z,13.53
2018-09-14T05:00:17.258Z,11.27
2018-09-14T05:02:52.063Z,11.30
2018-09-14T05:05:26.493Z,12.13
2018-09-14T05:08:00.998Z,11.50
2018-09-14T05:10:35.721Z,12.23
2018-09-14T05:13:10.875Z,11.00
2018-09-14T05:15:45.416Z,11.53
2018-09-14T05:18:19.940Z,11.17
2018-09-14T05:20:54.467Z,10.73
2018-09-14T05:23:29.045Z,9.40
2018-09-14T05:26:03.776Z,10.53
2018-09-14T05:28:38.445Z,10.67
2018-09-14T05:31:12.989Z,10.27
2018-09-14T05:33:47.384Z,10.60
2018-09-14T05:36:21.722Z,10.23
2018-09-14T05:38:56.190Z,9.50
2018-09-14T05:41:30.649Z,10.57
2018-09-14T05:44:06.006Z,10.73
2018-09-14T05:46:40.712Z,11.33
2018-09-14T05:49:15.141Z,10.87
2018-09-14T05:51:49.840Z,10.80
2018-09-14T05:54:24.291Z,10.43
2018-09-14T05:56:59.328Z,11.20
2018-09-14T05:59:33.729Z,10.67
2018-09-14T06:02:08.920Z,10.63
2018-09-14T06:04:43.369Z,10.37
2018-09-14T06:07:18.080Z,11.03
2018-09-14T06:09:52.495Z,10.20
2018-09-14T06:12:27.136Z,9.53
2018-09-14T06:15:01.893Z,9.80
2018-09-14T06:17:36.711Z,9.00
2018-09-14T06:20:11.036Z,10.17
2018-09-14T06:22:45.729Z,10.03
2018-09-14T06:25:20.472Z,9.60
2018-09-14T06:27:55.109Z,10.00
2018-09-14T06:30:29.571Z,10.40
2018-09-14T06:33:04.173Z,12.53
2018-09-14T06:35:38.668Z,13.27
2018-09-14T06:38:12.992Z,22.63
2018-09-14T06:40:47.584Z,14.13
2018-09-14T06:43:22.524Z,10.20
2018-09-14T06:45:57.004Z,9.67
2018-09-14T06:48:31.580Z,9.97
2018-09-14T06:51:06.272Z,10.50
2018-09-14T06:53:40.665Z,8.37
2018-09-14T06:56:15.755Z,7.47
2018-09-14T06:58:50.337Z,7.30
2018-09-14T07:01:24.756Z,7.37
2018-09-14T07:03:59.565Z,7.70
2018-09-14T07:06:34.348Z,7.60
2018-09-14T07:09:11.116Z,8.70
2018-09-14T07:11:46.054Z,8.43
2018-09-14T07:14:21.682Z,8.80
2018-09-14T07:16:57.174Z,8.70
2018-09-14T07:19:38.285Z,8.70
2018-09-14T07:22:16.554Z,9.33
2018-09-14T07:24:51.405Z,8.47
2018-09-14T07:27:25.868Z,9.10
2018-09-14T07:30:00.312Z,8.90
2018-09-14T07:32:34.976Z,9.10
2018-09-14T07:35:09.605Z,8.40
2018-09-14T07:37:43.928Z,9.47
2018-09-14T07:40:25.868Z,9.53
2018-09-14T07:43:00.612Z,7.73
2018-09-14T07:45:35.009Z,9.13
2018-09-14T07:48:10.161Z,8.33
2018-09-14T07:50:44.859Z,8.10
2018-09-14T07:53:19.595Z,7.47
2018-09-14T07:55:54.595Z,8.27
2018-09-14T07:58:31.794Z,8.70
2018-09-14T08:01:07.104Z,8.80
2018-09-14T08:03:42.010Z,9.77
2018-09-14T08:06:16.902Z,9.80
2018-09-14T08:08:51.881Z,9.70
2018-09-14T08:11:26.852Z,8.90
2018-09-14T08:14:03.231Z,8.60
2018-09-14T08:16:39.653Z,8.40
2018-09-14T08:19:14.799Z,8.77
2018-09-14T08:21:49.603Z,6.30
2018-09-14T08:24:27.728Z,6.23
2018-09-14T08:27:03.061Z,6.13
2018-09-14T08:29:38.908Z,6.10
2018-09-14T08:32:13.998Z,5.83
2018-09-14T08:34:48.776Z,5.57
2018-09-14T08:37:23.197Z,5.37
2018-09-14T08:39:57.679Z,5.97
2018-09-14T08:42:32.830Z,5.00
2018-09-14T08:45:07.364Z,4.87
2018-09-14T08:47:42.514Z,5.37
2018-09-14T08:50:17.191Z,14.60
2018-09-14T08:52:51.993Z,12.00
2018-09-14T08:55:26.284Z,8.97
2018-09-14T08:58:00.942Z,7.07
2018-09-14T09:00:41.464Z,8.93
2018-09-14T09:03:16.060Z,5.20
2018-09-14T09:05:50.562Z,5.03
2018-09-14T09:08:24.992Z,17.17
2018-09-14T09:10:59.537Z,6.50
2018-09-14T09:13:34.101Z,21.57
2018-09-14T09:16:10.673Z,6.47
2018-09-14T09:18:45.237Z,3.93
2018-09-14T09:21:19.893Z,5.17
2018-09-14T09:23:54.425Z,4.53
2018-09-14T09:26:29.868Z,5.20
2018-09-14T09:29:05.180Z,4.70
2018-09-14T09:31:39.661Z,8.60
2018-09-14T09:34:14.090Z,6.70
2018-09-14T09:36:48.721Z,4.40
2018-09-14T09:39:23.044Z,4.50
2018-09-14T09:41:58.620Z,6.13
2018-09-14T09:44:32.887Z,4.37
2018-09-14T09:47:07.447Z,5.17
2018-09-14T09:49:42.109Z,4.27
2018-09-14T09:52:16.786Z,5.63
2018-09-14T09:54:51.299Z,4.40
2018-09-14T09:57:25.733Z,4.53
2018-09-14T10:00:00.987Z,4.83
2018-09-14T10:02:38.939Z,5.43
2018-09-14T10:05:19.036Z,5.40
2018-09-14T10:07:53.583Z,4.60
2018-09-14T10:10:27.908Z,5.10
2018-09-14T10:13:02.671Z,4.70
2018-09-14T10:15:37.556Z,5.67
2018-09-14T10:18:11.907Z,5.57
2018-09-14T10:20:46.747Z,5.00
2018-09-14T10:23:21.779Z,4.97
2018-09-14T10:25:56.608Z,4.57
2018-09-14T10:28:30.967Z,5.30
2018-09-14T10:31:06.072Z,5.53
2018-09-14T10:33:40.414Z,4.13
2018-09-14T10:36:14.771Z,4.23
2018-09-14T10:38:49.667Z,5.33
2018-09-14T10:41:24.565Z,6.93
2018-09-14T10:43:59.364Z,5.43
2018-09-14T10:46:34.163Z,5.00
2018-09-14T10:49:08.654Z,4.97
2018-09-14T10:51:43.288Z,7.63
2018-09-14T10:54:17.688Z,5.60
2018-09-14T10:56:52.114Z,6.80
2018-09-14T10:59:26.759Z,5.53
2018-09-14T11:02:01.799Z,4.73
2018-09-14T11:04:36.605Z,4.57
2018-09-14T11:07:11.631Z,5.10
2018-09-14T11:09:46.376Z,5.53
2018-09-14T11:12:21.588Z,4.80
2018-09-14T11:14:55.915Z,7.07
2018-09-14T11:17:30.527Z,5.57
2018-09-14T11:20:05.208Z,4.40
2018-09-14T11:22:39.921Z,4.43
2018-09-14T11:25:15.228Z,4.60
2018-09-14T11:27:49.937Z,3.97
2018-09-14T11:30:24.577Z,4.80
2018-09-14T11:32:59.412Z,5.30
2018-09-14T11:35:34.339Z,4.40
2018-09-14T11:38:09.005Z,6.57
2018-09-14T11:40:43.609Z,4.67
2018-09-14T11:43:18.175Z,5.50
2018-09-14T11:45:52.700Z,4.90
2018-09-14T11:48:27.485Z,5.10
2018-09-14T11:51:01.956Z,4.57
2018-09-14T11:53:36.476Z,5.00
2018-09-14T11:56:11.684Z,5.43
2018-09-14T11:58:45.994Z,4.63
2018-09-14T12:01:20.523Z,4.80
2018-09-14T12:03:55.563Z,4.67
2018-09-14T12:06:30.371Z,5.13
2018-09-14T12:09:07.400Z,5.67
2018-09-14T12:11:42.364Z,4.03
2018-09-14T12:14:16.903Z,4.00
2018-09-14T12:16:51.364Z,4.00
2018-09-14T12:19:26.360Z,4.30
2018-09-14T12:22:01.134Z,4.77
2018-09-14T12:24:35.576Z,5.23
2018-09-14T12:27:10.237Z,4.53
2018-09-14T12:29:44.652Z,5.07
2018-09-14T12:32:19.841Z,4.67
2018-09-14T12:34:54.591Z,4.27
2018-09-14T12:37:28.944Z,4.73
2018-09-14T12:40:04.452Z,5.43
2018-09-14T12:42:40.088Z,4.87
2018-09-14T12:45:14.553Z,4.17
2018-09-14T12:47:48.859Z,4.20
2018-09-14T12:50:23.276Z,4.40
2018-09-14T12:52:57.560Z,4.30
2018-09-14T12:55:32.384Z,4.53
2018-09-14T12:58:07.384Z,5.03
2018-09-14T13:00:42.672Z,4.10
2018-09-14T13:03:17.039Z,4.07
2018-09-14T13:05:51.711Z,4.70
2018-09-14T13:08:26.227Z,4.43
2018-09-14T13:11:00.761Z,4.13
2018-09-14T13:13:35.316Z,4.13
2018-09-14T13:16:10.452Z,6.20
2018-09-14T13:18:45.095Z,3.77
2018-09-14T13:21:19.624Z,3.73
2018-09-14T13:23:54.992Z,3.90
2018-09-14T13:26:29.643Z,3.60
2018-09-14T13:29:04.056Z,3.80
2018-09-14T13:31:39.075Z,3.83
2018-09-14T13:34:13.634Z,4.20
2018-09-14T13:36:48.597Z,3.63
2018-09-14T13:39:23.761Z,3.83
2018-09-14T13:41:58.529Z,3.93
2018-09-14T13:44:33.885Z,3.80
2018-09-14T13:47:08.900Z,3.60
2018-09-14T13:49:43.344Z,4.20
2018-09-14T13:52:18.175Z,5.17
2018-09-14T13:54:52.610Z,3.70
2018-09-14T13:57:27.092Z,5.13
2018-09-14T14:00:02.741Z,3.90
2018-09-14T14:02:37.415Z,3.43
2018-09-14T14:05:12.735Z,3.47
2018-09-14T14:07:47.112Z,3.70
2018-09-14T14:10:22.326Z,4.17
2018-09-14T14:12:57.032Z,4.23
2018-09-14T14:15:31.631Z,3.73
2018-09-14T14:18:06.220Z,4.83
2018-09-14T14:20:41.006Z,5.53
2018-09-14T14:23:17.842Z,4.60
2018-09-14T14:25:53.087Z,3.80
2018-09-14T14:28:28.093Z,3.23
2018-09-14T14:31:03.700Z,3.90
2018-09-14T14:33:38.185Z,4.43
2018-09-14T14:36:12.892Z,3.43
2018-09-14T14:38:47.517Z,3.53
2018-09-14T14:41:22.425Z,3.73
2018-09-14T14:43:57.254Z,4.23
2018-09-14T14:46:31.536Z,4.20
2018-09-14T14:49:06.257Z,3.40
2018-09-14T14:51:40.818Z,3.50
2018-09-14T14:54:15.440Z,3.40
2018-09-14T14:56:50.016Z,3.23
2018-09-14T14:59:24.944Z,2.90
2018-09-14T15:01:59.662Z,3.83
2018-09-14T15:04:34.620Z,3.30
2018-09-14T15:07:09.436Z,3.50
2018-09-14T15:09:44.382Z,3.87
2018-09-14T15:12:18.847Z,3.67
2018-09-14T15:14:53.415Z,3.30
2018-09-14T15:17:28.008Z,3.07
2018-09-14T15:20:02.661Z,3.13
2018-09-14T15:22:37.868Z,3.60
2018-09-14T15:25:12.192Z,3.23
2018-09-14T15:27:46.678Z,3.63
2018-09-14T15:30:21.928Z,3.10
2018-09-14T15:32:56.770Z,3.00
2018-09-14T15:35:31.273Z,4.40
2018-09-14T15:38:05.927Z,3.33
2018-09-14T15:40:40.412Z,3.63
2018-09-14T15:43:14.791Z,3.90
2018-09-14T15:45:49.639Z,3.60
2018-09-14T15:48:24.045Z,3.70
2018-09-14T15:50:58.391Z,3.00
2018-09-14T15:53:33.671Z,3.30
2018-09-14T15:56:08.500Z,3.63
2018-09-14T15:58:43.214Z,3.43
2018-09-14T16:01:17.753Z,2.83
2018-09-14T16:03:52.430Z,3.30
2018-09-14T16:06:27.177Z,3.57
2018-09-14T16:09:02.292Z,4.57
2018-09-14T16:11:37.803Z,3.10
2018-09-14T16:14:12.255Z,3.13
2018-09-14T16:16:46.571Z,3.13
2018-09-14T16:19:21.131Z,3.47
2018-09-14T16:21:55.607Z,4.40
2018-09-14T16:24:30.072Z,3.17
2018-09-14T16:27:04.758Z,4.20
2018-09-14T16:29:39.244Z,5.90
2018-09-14T16:32:14.027Z,4.20
2018-09-14T16:34:48.333Z,3.43
2018-09-14T16:37:22.635Z,3.30
2018-09-14T16:39:57.287Z,4.33
2018-09-14T16:42:31.813Z,4.00
2018-09-14T16:45:07.019Z,3.73
2018-09-14T16:47:41.330Z,3.47
2018-09-14T16:50:16.360Z,3.70
2018-09-14T16:52:51.258Z,4.13
2018-09-14T16:55:25.739Z,4.00
2018-09-14T16:58:00.592Z,4.50
2018-09-14T17:00:35.199Z,5.73
2018-09-14T17:03:10.152Z,4.10
2018-09-14T17:05:44.571Z,5.80
2018-09-14T17:08:18.955Z,4.77
2018-09-14T17:10:53.542Z,4.50
2018-09-14T17:13:27.965Z,4.40
2018-09-14T17:16:03.439Z,4.63
2018-09-14T17:18:39.361Z,4.67
2018-09-14T17:21:14.532Z,4.83
2018-09-14T17:23:49.732Z,5.47
2018-09-14T17:26:24.132Z,5.17
2018-09-14T17:28:58.594Z,4.70
2018-09-14T17:31:33.599Z,5.57
2018-09-14T17:34:08.116Z,5.23
2018-09-14T17:36:42.584Z,5.77
2018-09-14T17:39:16.957Z,6.23
2018-09-14T17:41:51.380Z,5.80
2018-09-14T17:44:26.071Z,6.67
2018-09-14T17:47:00.699Z,6.83
2018-09-14T17:49:35.040Z,7.17
2018-09-14T17:52:09.960Z,8.90
2018-09-14T17:54:44.644Z,5.50
2018-09-14T17:57:19.308Z,5.97
2018-09-14T17:59:54.044Z,5.47
2018-09-14T18:02:28.487Z,6.23
2018-09-14T18:05:03.387Z,6.53
2018-09-14T18:07:38.471Z,5.80
2018-09-14T18:10:13.087Z,6.60
2018-09-14T18:12:48.059Z,6.83
2018-09-14T18:15:22.886Z,8.33
2018-09-14T18:17:57.360Z,7.20
2018-09-14T18:20:31.972Z,8.47
2018-09-14T18:23:07.243Z,7.80
2018-09-14T18:25:41.979Z,8.47
2018-09-14T18:28:16.868Z,7.97
2018-09-14T18:30:51.655Z,9.53
2018-09-14T18:33:26.349Z,9.83
2018-09-14T18:36:00.601Z,8.90
2018-09-14T18:38:36.916Z,9.80
2018-09-14T18:41:11.619Z,9.93
2018-09-14T18:43:46.148Z,9.57
2018-09-14T18:46:20.707Z,9.10
2018-09-14T18:48:55.248Z,9.23
2018-09-14T18:51:29.556Z,9.37
2018-09-14T18:54:04.507Z,9.00
2018-09-14T18:56:39.248Z,9.97
2018-09-14T18:59:14.688Z,9.67
2018-09-14T19:01:49.112Z,9.10
2018-09-14T19:04:24.040Z,8.40
2018-09-14T19:06:58.864Z,8.83
2018-09-14T19:09:33.351Z,9.80
2018-09-14T19:12:08.061Z,9.67
2018-09-14T19:14:42.720Z,10.13
2018-09-14T19:17:17.184Z,10.03
2018-09-14T19:19:52.074Z,10.07
2018-09-14T19:22:26.602Z,10.43
2018-09-14T19:25:01.445Z,10.40
2018-09-14T19:27:36.363Z,10.17
2018-09-14T19:30:10.696Z,9.73
2018-09-14T19:32:45.051Z,9.80
2018-09-14T19:35:19.667Z,9.80
2018-09-14T19:37:54.276Z,10.43
2018-09-14T19:40:29.071Z,10.00
2018-09-14T19:43:03.643Z,9.37
2018-09-14T19:45:38.530Z,10.27
2018-09-14T19:48:13.043Z,10.17
2018-09-14T19:50:48.867Z,10.07
2018-09-14T19:53:23.363Z,9.30
2018-09-14T19:55:59.273Z,9.23
2018-09-14T19:58:34.143Z,9.10
2018-09-14T20:01:10.851Z,10.20
2018-09-14T20:03:45.300Z,10.07
2018-09-14T20:06:19.972Z,10.07
2018-09-14T20:08:54.831Z,9.83
2018-09-14T20:11:29.572Z,10.00
2018-09-14T20:14:04.703Z,9.63
2018-09-14T20:16:39.683Z,9.47
2018-09-14T20:19:14.215Z,9.90
2018-09-14T20:21:49.383Z,9.57
2018-09-14T20:24:24.220Z,11.73
2018-09-14T20:26:58.603Z,10.43
2018-09-14T20:29:33.180Z,10.10
2018-09-14T20:32:08.035Z,10.87
2018-09-14T20:34:42.848Z,10.33
2018-09-14T20:37:18.334Z,10.00
2018-09-14T20:39:53.552Z,10.47
2018-09-14T20:42:28.059Z,10.33
2018-09-14T20:45:02.829Z,9.73
2018-09-14T20:47:37.199Z,9.73
2018-09-14T20:50:11.817Z,9.90
2018-09-14T20:55:26.072Z,9.43
2018-09-14T20:58:00.619Z,9.63
2018-09-14T21:00:35.164Z,9.93
2018-09-14T21:03:09.765Z,9.27
2018-09-14T21:05:44.260Z,9.80
2018-09-14T21:08:18.665Z,10.00
2018-09-14T21:10:53.496Z,10.90
2018-09-14T21:13:28.240Z,10.07
2018-09-14T21:16:02.652Z,9.07
2018-09-14T21:18:37.346Z,9.23
2018-09-14T21:21:12.379Z,9.93
2018-09-14T21:23:46.699Z,10.53
2018-09-14T21:26:21.719Z,11.03
2018-09-14T21:28:56.291Z,10.30
2018-09-14T21:31:30.909Z,9.87
2018-09-14T21:34:06.121Z,11.33
2018-09-14T21:36:40.408Z,10.80
2018-09-14T21:39:14.708Z,11.13
2018-09-14T21:41:49.476Z,11.03
2018-09-14T21:44:23.921Z,11.43
2018-09-14T21:46:58.271Z,11.73
2018-09-14T21:49:32.807Z,12.77
2018-09-14T21:52:07.488Z,11.07
2018-09-14T21:54:42.032Z,10.57
2018-09-14T21:57:16.340Z,11.07
2018-09-14T21:59:50.976Z,10.40
2018-09-14T22:02:25.916Z,10.33
2018-09-14T22:05:00.840Z,10.50
2018-09-14T22:07:35.171Z,10.23
2018-09-14T22:10:10.149Z,11.17
2018-09-14T22:12:44.527Z,10.03
2018-09-14T22:15:18.864Z,9.37
2018-09-14T22:17:53.492Z,10.10
2018-09-14T22:20:28.645Z,10.40
2018-09-14T22:23:03.404Z,9.93
2018-09-14T22:25:38.276Z,11.03
2018-09-14T22:28:12.884Z,11.33
2018-09-14T22:30:47.432Z,10.37
2018-09-14T22:33:21.759Z,10.40
2018-09-14T22:35:56.394Z,11.00
2018-09-14T22:38:31.293Z,10.40
2018-09-14T22:41:05.642Z,11.20
2018-09-14T22:43:39.952Z,10.87
2018-09-14T22:46:15.116Z,11.03
2018-09-14T22:48:49.812Z,11.00
2018-09-14T22:51:24.397Z,11.00
2018-09-14T22:53:59.072Z,10.83
2018-09-14T22:56:33.504Z,11.57
2018-09-14T22:59:08.789Z,10.90
2018-09-14T23:01:43.435Z,11.00
2018-09-14T23:04:17.907Z,10.13
2018-09-14T23:06:52.640Z,10.80
2018-09-14T23:09:27.145Z,12.60
2018-09-14T23:12:02.775Z,11.27
2018-09-14T23:14:37.847Z,11.50
2018-09-14T23:17:13.416Z,10.53
2018-09-14T23:19:48.120Z,9.90
2018-09-14T23:22:22.796Z,11.30
2018-09-14T23:24:57.539Z,10.87
2018-09-14T23:27:31.961Z,10.53
2018-09-14T23:30:07.591Z,10.50
2018-09-14T23:32:42.391Z,10.23
2018-09-14T23:35:17.335Z,9.93
2018-09-14T23:37:52.100Z,9.90
2018-09-14T23:40:26.510Z,10.57
2018-09-14T23:43:00.933Z,10.27
2018-09-14T23:45:35.871Z,9.47
2018-09-14T23:48:10.536Z,10.00
2018-09-14T23:50:45.456Z,9.33
2018-09-14T23:53:19.801Z,8.70
2018-09-14T23:55:54.378Z,8.90
2018-09-14T23:58:28.925Z,8.63
